Time;durP1;ratioP1;P1;durP2;ratioP2;P2;SDS_P1;SDS_P2;PMS_P1;PMS_P2;Temp;Humidity;BMP_temperature;BMP_pressure;BME280_temperature;BME280_humidity;BME280_pressure;Samples;Min_cycle;Max_cycle;Signal;HPM_P1;HPM_P2
2024/04/07 00:00:48;;;;;;;20.88;11.23;;;;;;;;;;5042052;28;20119;-60
2024/04/07 00:03:14;;;;;;;23.83;11.82;;;;;;;;;;5026512;28;20135;-58
2024/04/07 00:05:40;;;;;;;30.45;13.30;;;;;;;;;;5026407;28;20116;-56
2024/04/07 00:08:05;;;;;;;25.85;10.77;;;;;;;;;;5041646;28;20037;-59
2024/04/07 00:10:31;;;;;;;25.60;11.00;;;;;;;;;;5008084;28;20037;-58
2024/04/07 00:12:57;;;;;;;20.25;10.52;;;;;;;;;;5025601;28;20439;-61
2024/04/07 00:15:22;;;;;;;21.80;10.48;;;;;;;;;;5041268;28;20040;-59
2024/04/07 00:17:48;;;;;;;18.38;9.65;;;;;;;;;;5041545;28;20040;-60
2024/04/07 00:20:14;;;;;;;24.23;10.98;;;;;;;;;;5026744;28;20025;-60
2024/04/07 00:22:40;;;;;;;21.58;10.13;;;;;;;;;;5041888;28;20524;-60
2024/04/07 00:25:06;;;;;;;21.50;10.27;;;;;;;;;;5025014;28;20044;-60
2024/04/07 00:27:32;;;;;;;21.00;10.32;;;;;;;;;;5025921;28;20044;-60
2024/04/07 00:29:57;;;;;;;22.13;10.20;;;;;;;;;;5041150;28;20041;-58
2024/04/07 00:32:23;;;;;;;23.88;10.52;;;;;;;;;;5024435;28;20041;-60
2024/04/07 00:34:49;;;;;;;23.17;10.93;;;;;;;;;;5024930;28;20072;-57
2024/04/07 00:37:15;;;;;;;22.67;10.85;;;;;;;;;;5025779;28;20037;-58
2024/04/07 00:39:44;;;;;;;24.45;9.65;;;;;;;;;;5024155;28;20037;-60
2024/04/07 00:42:10;;;;;;;25.98;11.90;;;;;;;;;;5024163;28;20037;-59
2024/04/07 00:44:36;;;;;;;22.48;9.32;;;;;;;;;;5025172;28;20037;-59
2024/04/07 00:47:01;;;;;;;19.85;10.23;;;;;;;;;;5040931;28;20033;-59
2024/04/07 00:49:28;;;;;;;20.48;10.45;;;;;;;;;;5026347;28;20044;-59
2024/04/07 00:51:54;;;;;;;23.08;11.30;;;;;;;;;;5025607;28;20049;-60
2024/04/07 00:54:20;;;;;;;21.30;10.70;;;;;;;;;;5024161;28;20033;-60
2024/04/07 00:56:46;;;;;;;20.90;9.75;;;;;;;;;;5024782;28;20779;-62
2024/04/07 00:59:11;;;;;;;23.67;10.20;;;;;;;;;;5026846;28;20033;-59
2024/04/07 01:01:37;;;;;;;21.40;10.05;;;;;;;;;;5026806;28;20088;-59
2024/04/07 01:04:03;;;;;;;19.58;9.70;;;;;;;;;;5024396;28;20500;-59
2024/04/07 01:06:29;;;;;;;20.25;10.60;;;;;;;;;;5025339;28;20195;-60
2024/04/07 01:08:56;;;;;;;18.98;9.57;;;;;;;;;;5027611;28;20064;-60
2024/04/07 01:11:28;;;;;;;19.40;9.75;;;;;;;;;;5027603;28;20425;-59
2024/04/07 01:13:55;;;;;;;21.60;9.70;;;;;;;;;;5029200;28;20107;-60
2024/04/07 01:16:21;;;;;;;17.40;9.70;;;;;;;;;;5028734;28;20029;-58
2024/04/07 01:18:47;;;;;;;21.38;10.57;;;;;;;;;;5027656;28;20041;-58
2024/04/07 01:21:13;;;;;;;21.35;10.70;;;;;;;;;;5029127;28;20095;-59
2024/04/07 01:23:39;;;;;;;18.40;10.15;;;;;;;;;;5027710;28;20913;-58
2024/04/07 01:26:05;;;;;;;25.30;10.38;;;;;;;;;;5036773;28;20477;-59
2024/04/07 01:28:30;;;;;;;20.95;10.50;;;;;;;;;;5028375;28;20041;-60
2024/04/07 01:30:56;;;;;;;19.85;10.43;;;;;;;;;;5028496;28;20128;-61
2024/04/07 01:33:22;;;;;;;19.10;9.82;;;;;;;;;;5017340;28;20049;-60
2024/04/07 01:35:48;;;;;;;22.33;10.23;;;;;;;;;;5028575;28;20080;-59
2024/04/07 01:38:14;;;;;;;17.55;10.18;;;;;;;;;;5028795;28;20041;-59
2024/04/07 01:40:40;;;;;;;20.88;10.85;;;;;;;;;;5028730;28;20116;-61
2024/04/07 01:43:05;;;;;;;20.25;10.48;;;;;;;;;;5028421;28;20148;-60
2024/04/07 01:45:31;;;;;;;19.52;9.63;;;;;;;;;;5026595;28;20076;-61
2024/04/07 01:47:57;;;;;;;23.40;11.25;;;;;;;;;;5027902;28;20065;-62
2024/04/07 01:50:23;;;;;;;23.25;10.85;;;;;;;;;;5043264;28;20112;-59
2024/04/07 01:52:49;;;;;;;18.85;9.35;;;;;;;;;;5028582;28;20037;-60
2024/04/07 01:55:14;;;;;;;21.73;10.95;;;;;;;;;;5043737;28;20057;-60
2024/04/07 01:57:40;;;;;;;21.25;11.05;;;;;;;;;;5027728;28;20468;-58
2024/04/07 02:00:07;;;;;;;21.15;11.38;;;;;;;;;;5043294;28;20033;-60
2024/04/07 02:02:36;;;;;;;21.67;11.73;;;;;;;;;;5010138;28;20060;-60
2024/04/07 02:05:02;;;;;;;;;;;;;;;;;;5027159;28;20428;-60
2024/04/07 02:07:28;;;;;;;25.45;12.10;;;;;;;;;;5026025;28;19919;-60
2024/04/07 02:09:54;;;;;;;22.13;10.32;;;;;;;;;;5026939;28;20037;-60
2024/04/07 02:12:19;;;;;;;22.50;11.40;;;;;;;;;;5043531;28;20079;-58
2024/04/07 02:14:45;;;;;;;23.52;10.95;;;;;;;;;;5026442;28;20060;-57
2024/04/07 02:17:11;;;;;;;20.92;10.55;;;;;;;;;;5019819;28;20545;-57
2024/04/07 02:19:38;;;;;;;24.40;11.35;;;;;;;;;;5022977;28;20038;-59
2024/04/07 02:22:05;;;;;;;21.98;11.85;;;;;;;;;;5007942;28;20081;-59
2024/04/07 02:24:30;;;;;;;26.63;10.55;;;;;;;;;;5007807;28;20064;-60
2024/04/07 02:26:56;;;;;;;23.38;11.55;;;;;;;;;;5006901;28;20042;-60
2024/04/07 02:29:22;;;;;;;20.15;10.65;;;;;;;;;;5026518;28;20041;-59
2024/04/07 02:31:48;;;;;;;23.52;10.80;;;;;;;;;;5025697;28;20033;-58
2024/04/07 02:34:14;;;;;;;22.90;11.10;;;;;;;;;;4999235;28;20626;-59
2024/04/07 02:36:39;;;;;;;22.23;11.32;;;;;;;;;;5009716;28;20535;-58
2024/04/07 02:39:09;;;;;;;19.00;10.00;;;;;;;;;;5027188;28;20044;-58
2024/04/07 02:41:34;;;;;;;;;;;;;;;;;;5027330;28;20489;-59
2024/04/07 02:44:00;;;;;;;18.83;10.10;;;;;;;;;;5024372;28;20007;-57
2024/04/07 02:49:10;;;;;;;22.02;10.32;;;;;;;;;;5015812;28;20179;-58
2024/04/07 02:51:36;;;;;;;17.15;9.73;;;;;;;;;;5027390;28;20140;-59
2024/04/07 02:54:02;;;;;;;20.65;10.05;;;;;;;;;;5025913;28;20041;-60
2024/04/07 02:56:27;;;;;;;19.13;10.95;;;;;;;;;;5027106;28;20033;-60
2024/04/07 02:58:53;;;;;;;21.77;10.98;;;;;;;;;;5026965;28;20037;-62
2024/04/07 03:01:19;;;;;;;19.17;9.85;;;;;;;;;;5009356;28;20425;-60
2024/04/07 03:03:45;;;;;;;22.80;11.73;;;;;;;;;;5026170;28;20063;-60
2024/04/07 03:06:12;;;;;;;19.95;10.85;;;;;;;;;;5026970;28;20045;-59
2024/04/07 03:08:38;;;;;;;18.70;10.98;;;;;;;;;;5041773;28;20106;-59
2024/04/07 03:11:04;;;;;;;21.42;11.57;;;;;;;;;;5026931;28;20037;-58
2024/04/07 03:13:30;;;;;;;25.95;12.00;;;;;;;;;;5042258;28;20552;-59
2024/04/07 03:15:56;;;;;;;21.02;11.27;;;;;;;;;;5027110;28;20033;-62
2024/04/07 03:18:22;;;;;;;21.00;10.15;;;;;;;;;;5042031;28;20037;-59
2024/04/07 03:20:48;;;;;;;22.27;11.68;;;;;;;;;;5026315;28;20041;-60
2024/04/07 03:23:14;;;;;;;21.52;10.85;;;;;;;;;;5026468;28;20041;-56
2024/04/07 03:25:40;;;;;;;23.75;11.57;;;;;;;;;;5026411;28;20046;-57
2024/04/07 03:28:06;;;;;;;25.05;11.15;;;;;;;;;;5024987;28;20033;-60
2024/04/07 03:30:32;;;;;;;23.67;11.13;;;;;;;;;;5025161;28;20033;-59
2024/04/07 03:32:58;;;;;;;22.52;11.25;;;;;;;;;;5018035;28;20041;-58
2024/04/07 03:35:24;;;;;;;21.83;10.65;;;;;;;;;;5026488;28;20124;-59
2024/04/07 03:37:50;;;;;;;23.45;12.07;;;;;;;;;;5041254;28;20128;-61
2024/04/07 03:40:16;;;;;;;18.75;10.32;;;;;;;;;;5041018;28;20735;-60
2024/04/07 03:42:41;;;;;;;25.10;10.77;;;;;;;;;;5026349;28;20508;-59
2024/04/07 03:45:09;;;;;;;21.17;10.75;;;;;;;;;;5025237;28;20584;-58
2024/04/07 03:47:39;;;;;;;18.70;10.10;;;;;;;;;;5041708;28;20034;-59
2024/04/07 03:50:05;;;;;;;20.20;9.75;;;;;;;;;;5024617;28;20037;-59
2024/04/07 03:52:32;;;;;;;21.60;10.88;;;;;;;;;;5025772;28;20033;-61
2024/04/07 03:54:59;;;;;;;22.23;10.30;;;;;;;;;;5024610;28;20046;-59
2024/04/07 03:57:26;;;;;;;20.23;11.35;;;;;;;;;;5026229;28;20084;-60
2024/04/07 03:59:52;;;;;;;20.70;10.40;;;;;;;;;;5026097;28;20061;-59
2024/04/07 04:02:24;;;;;;;19.08;10.20;;;;;;;;;;5010391;28;20084;-59
2024/04/07 04:04:55;;;;;;;20.33;10.20;;;;;;;;;;5004419;28;20044;-60
2024/04/07 04:07:21;;;;;;;21.55;12.05;;;;;;;;;;5005917;28;20042;-61
2024/04/07 04:09:50;;;;;;;22.05;10.73;;;;;;;;;;5013889;28;20049;-61
2024/04/07 04:12:15;;;;;;;18.98;10.82;;;;;;;;;;5022485;28;20052;-61
2024/04/07 04:14:41;;;;;;;21.15;10.75;;;;;;;;;;5023720;28;20428;-60
2024/04/07 04:17:07;;;;;;;23.63;10.90;;;;;;;;;;5025007;28;20036;-60
2024/04/07 04:19:33;;;;;;;18.27;10.05;;;;;;;;;;5023818;28;20085;-60
2024/04/07 04:21:59;;;;;;;17.23;9.55;;;;;;;;;;5022624;28;20041;-60
2024/04/07 04:24:25;;;;;;;18.00;9.82;;;;;;;;;;5024113;28;20048;-59
2024/04/07 04:26:50;;;;;;;22.67;10.73;;;;;;;;;;5024337;28;20034;-61
2024/04/07 04:29:16;;;;;;;17.42;9.75;;;;;;;;;;5025348;28;20148;-60
2024/04/07 04:31:41;;;;;;;22.73;9.68;;;;;;;;;;5040222;28;20131;-61
2024/04/07 04:34:07;;;;;;;18.85;10.52;;;;;;;;;;5023897;28;20791;-62
2024/04/07 04:36:34;;;;;;;18.48;9.55;;;;;;;;;;5025347;28;20040;-61
2024/04/07 04:39:00;;;;;;;19.55;10.18;;;;;;;;;;5025036;28;20037;-60
2024/04/07 04:41:25;;;;;;;17.08;9.57;;;;;;;;;;5027505;28;20041;-60
2024/04/07 04:43:51;;;;;;;18.23;10.13;;;;;;;;;;5028755;28;20048;-61
2024/04/07 04:46:17;;;;;;;19.10;9.82;;;;;;;;;;5027662;28;20029;-61
2024/04/07 04:48:43;;;;;;;18.23;9.48;;;;;;;;;;5044890;28;20037;-61
2024/04/07 04:51:09;;;;;;;23.35;10.38;;;;;;;;;;5029122;28;20038;-61
2024/04/07 04:53:35;;;;;;;19.17;9.77;;;;;;;;;;5029284;28;20520;-59
2024/04/07 04:56:01;;;;;;;22.55;10.48;;;;;;;;;;5029325;28;20037;-60
2024/04/07 04:58:29;;;;;;;18.35;9.88;;;;;;;;;;5027308;28;20390;-59
2024/04/07 05:00:58;;;;;;;20.23;10.27;;;;;;;;;;5026566;28;20037;-60
2024/04/07 05:03:28;;;;;;;22.55;11.50;;;;;;;;;;5041715;28;20037;-59
2024/04/07 05:05:53;;;;;;;;;;;;;;;;;;5028173;28;20234;-62
2024/04/07 05:08:19;;;;;;;18.60;9.80;;;;;;;;;;5044236;28;20012;-60
2024/04/07 05:10:45;;;;;;;19.67;10.05;;;;;;;;;;5010041;28;20037;-64
2024/04/07 05:13:11;;;;;;;18.67;10.05;;;;;;;;;;5028615;28;20128;-59
2024/04/07 05:15:36;;;;;;;22.88;10.35;;;;;;;;;;5027720;28;20036;-60
2024/04/07 05:18:02;;;;;;;18.33;9.90;;;;;;;;;;5028920;28;20424;-59
2024/04/07 05:20:28;;;;;;;18.48;9.48;;;;;;;;;;5027830;28;20082;-59
2024/04/07 05:22:54;;;;;;;19.92;10.73;;;;;;;;;;5027341;28;20038;-61
2024/04/07 05:25:20;;;;;;;22.00;10.05;;;;;;;;;;5028738;28;20036;-60
2024/04/07 05:27:46;;;;;;;20.38;10.02;;;;;;;;;;5028883;28;20034;-61
2024/04/07 05:30:13;;;;;;;20.65;10.50;;;;;;;;;;5007127;28;20033;-56
2024/04/07 05:32:39;;;;;;;19.08;10.43;;;;;;;;;;5031490;28;20045;-58
2024/04/07 05:35:05;;;;;;;20.15;9.50;;;;;;;;;;5028171;28;20417;-57
2024/04/07 05:37:31;;;;;;;17.58;9.60;;;;;;;;;;5028478;28;20863;-56
2024/04/07 05:39:57;;;;;;;22.15;10.07;;;;;;;;;;5009894;28;20103;-56
2024/04/07 05:42:24;;;;;;;19.42;9.30;;;;;;;;;;5028407;28;20469;-57
2024/04/07 05:44:50;;;;;;;17.45;9.65;;;;;;;;;;5027103;28;20095;-60
2024/04/07 05:47:16;;;;;;;19.13;10.48;;;;;;;;;;5028569;28;20628;-55
2024/04/07 05:49:42;;;;;;;19.33;10.45;;;;;;;;;;5027760;28;20128;-54
2024/04/07 05:52:08;;;;;;;18.65;10.00;;;;;;;;;;5026680;28;20153;-56
2024/04/07 05:54:34;;;;;;;16.83;9.57;;;;;;;;;;5027704;28;20064;-54
2024/04/07 05:57:00;;;;;;;17.35;10.02;;;;;;;;;;5026131;28;20120;-53
2024/04/07 05:59:25;;;;;;;22.00;9.60;;;;;;;;;;5005287;28;20050;-57
2024/04/07 06:01:51;;;;;;;16.40;7.32;;;;;;;;;;5002455;28;20038;-53
2024/04/07 06:04:17;;;;;;;17.48;8.20;;;;;;;;;;5008290;28;20041;-55
2024/04/07 06:06:42;;;;;;;22.15;10.18;;;;;;;;;;5023221;28;20905;-53
2024/04/07 06:09:08;;;;;;;18.23;10.23;;;;;;;;;;5023113;28;20414;-56
2024/04/07 06:11:34;;;;;;;18.08;9.55;;;;;;;;;;5018387;28;20083;-53
2024/04/07 06:14:00;;;;;;;20.35;10.75;;;;;;;;;;5027923;28;20029;-58
2024/04/07 06:16:26;;;;;;;18.45;9.43;;;;;;;;;;5042963;28;20037;-58
2024/04/07 06:18:52;;;;;;;17.10;9.43;;;;;;;;;;5042704;28;20485;-60
2024/04/07 06:21:19;;;;;;;18.90;9.40;;;;;;;;;;5026186;28;20049;-59
2024/04/07 06:23:44;;;;;;;19.92;10.00;;;;;;;;;;5026671;28;20093;-59
2024/04/07 06:26:10;;;;;;;20.50;10.43;;;;;;;;;;5027584;28;20072;-57
2024/04/07 06:28:36;;;;;;;19.77;10.95;;;;;;;;;;5042537;28;20037;-57
2024/04/07 06:31:03;;;;;;;22.02;9.65;;;;;;;;;;5027624;28;20070;-59
2024/04/07 06:33:29;;;;;;;19.42;9.52;;;;;;;;;;5037490;28;20033;-57
2024/04/07 06:35:55;;;;;;;15.50;8.00;;;;;;;;;;5027637;28;20037;-58
2024/04/07 06:38:21;;;;;;;21.98;10.43;;;;;;;;;;5027467;28;20033;-60
2024/04/07 06:40:47;;;;;;;15.52;8.80;;;;;;;;;;5027440;28;20044;-59
2024/04/07 06:43:12;;;;;;;18.63;9.35;;;;;;;;;;5027189;28;20539;-60
2024/04/07 06:45:38;;;;;;;25.48;10.27;;;;;;;;;;5026328;28;20063;-59
2024/04/07 06:48:04;;;;;;;16.83;9.82;;;;;;;;;;5042345;28;20033;-59
2024/04/07 06:50:33;;;;;;;16.65;8.70;;;;;;;;;;5025335;28;20043;-56
2024/04/07 06:52:59;;;;;;;17.27;9.73;;;;;;;;;;5036021;28;20040;-57
2024/04/07 06:55:24;;;;;;;16.77;9.50;;;;;;;;;;5024614;28;20033;-57
2024/04/07 06:57:50;;;;;;;18.55;9.85;;;;;;;;;;5025705;28;20500;-59
2024/04/07 07:00:16;;;;;;;18.73;9.23;;;;;;;;;;5025311;28;20068;-57
2024/04/07 07:02:41;;;;;;;15.23;9.00;;;;;;;;;;5037531;28;20596;-59
2024/04/07 07:05:08;;;;;;;20.08;9.68;;;;;;;;;;5021973;28;20097;-60
2024/04/07 07:07:33;;;;;;;19.00;9.38;;;;;;;;;;5026106;28;20124;-60
2024/04/07 07:09:59;;;;;;;19.88;9.93;;;;;;;;;;5026615;28;20612;-57
2024/04/07 07:12:24;;;;;;;19.85;9.80;;;;;;;;;;5024975;28;20033;-61
2024/04/07 07:14:51;;;;;;;20.65;9.23;;;;;;;;;;5024854;28;20140;-60
2024/04/07 07:17:17;;;;;;;18.65;9.50;;;;;;;;;;5026585;28;20386;-60
2024/04/07 07:19:43;;;;;;;17.65;10.02;;;;;;;;;;5026659;28;20040;-55
2024/04/07 07:22:08;;;;;;;18.15;9.50;;;;;;;;;;5042038;28;20068;-59
2024/04/07 07:24:34;;;;;;;18.63;8.55;;;;;;;;;;5008073;28;20060;-55
2024/04/07 07:27:00;;;;;;;15.85;9.18;;;;;;;;;;5026701;28;20045;-57
2024/04/07 07:29:26;;;;;;;20.60;10.55;;;;;;;;;;5025719;28;20048;-59
2024/04/07 07:31:56;;;;;;;17.90;9.13;;;;;;;;;;5025600;28;20501;-58
2024/04/07 07:34:22;;;;;;;14.82;7.72;;;;;;;;;;5016453;28;20069;-55
2024/04/07 07:36:48;;;;;;;18.55;8.45;;;;;;;;;;5026370;28;20550;-59
2024/04/07 07:39:14;;;;;;;18.65;10.07;;;;;;;;;;5025466;28;20033;-63
2024/04/07 07:41:40;;;;;;;17.02;9.57;;;;;;;;;;5007645;28;20131;-60
2024/04/07 07:44:05;;;;;;;16.02;8.95;;;;;;;;;;5007863;28;20124;-60
2024/04/07 07:46:31;;;;;;;13.70;7.78;;;;;;;;;;5025803;28;20570;-59
2024/04/07 07:48:57;;;;;;;18.23;8.30;;;;;;;;;;5026099;28;20052;-59
2024/04/07 07:51:24;;;;;;;18.33;8.90;;;;;;;;;;5041280;28;20041;-61
2024/04/07 07:53:50;;;;;;;16.13;8.63;;;;;;;;;;5039519;28;20037;-59
2024/04/07 07:56:16;;;;;;;15.43;8.75;;;;;;;;;;5025135;28;20040;-61
2024/04/07 07:58:42;;;;;;;15.90;8.73;;;;;;;;;;5041239;28;20041;-59
2024/04/07 08:01:08;;;;;;;17.80;7.95;;;;;;;;;;5024820;28;20033;-60
2024/04/07 08:03:35;;;;;;;15.07;8.93;;;;;;;;;;5025485;28;20342;-62
2024/04/07 08:06:01;;;;;;;14.43;7.93;;;;;;;;;;5024352;28;20033;-58
2024/04/07 08:08:27;;;;;;;13.63;8.25;;;;;;;;;;5024313;28;20041;-61
2024/04/07 08:10:53;;;;;;;14.68;9.15;;;;;;;;;;5025437;28;20107;-59
2024/04/07 08:13:19;;;;;;;17.70;8.98;;;;;;;;;;5025241;28;20046;-59
2024/04/07 08:15:45;;;;;;;14.20;7.78;;;;;;;;;;5028892;28;20419;-60
2024/04/07 08:18:11;;;;;;;23.65;8.85;;;;;;;;;;5031186;28;20572;-59
2024/04/07 08:20:37;;;;;;;15.38;8.73;;;;;;;;;;5047630;28;20041;-58
2024/04/07 08:23:03;;;;;;;15.60;8.80;;;;;;;;;;5031698;28;20034;-60
2024/04/07 08:25:29;;;;;;;13.57;8.82;;;;;;;;;;5032323;28;20047;-60
2024/04/07 08:27:55;;;;;;;13.98;8.93;;;;;;;;;;5031679;28;20425;-59
2024/04/07 08:30:21;;;;;;;19.33;9.05;;;;;;;;;;5032009;28;20148;-62
2024/04/07 08:32:46;;;;;;;14.95;8.93;;;;;;;;;;5042113;28;20116;-61
2024/04/07 08:35:12;;;;;;;13.98;9.25;;;;;;;;;;5031098;28;20041;-60
2024/04/07 08:37:41;;;;;;;16.45;10.05;;;;;;;;;;5032252;28;20479;-58
2024/04/07 08:40:07;;;;;;;16.98;9.38;;;;;;;;;;5030438;28;20033;-59
2024/04/07 08:42:33;;;;;;;21.30;10.05;;;;;;;;;;5031975;28;20061;-61
2024/04/07 08:45:02;;;;;;;15.48;9.45;;;;;;;;;;5031088;28;20072;-62
2024/04/07 08:47:31;;;;;;;18.50;10.50;;;;;;;;;;5028585;28;20041;-58
2024/04/07 08:49:57;;;;;;;20.10;10.40;;;;;;;;;;5031392;28;20033;-64
2024/04/07 08:52:23;;;;;;;17.35;10.80;;;;;;;;;;5032170;28;20064;-60
2024/04/07 08:54:49;;;;;;;14.02;9.50;;;;;;;;;;5031683;28;20030;-58
2024/04/07 08:57:15;;;;;;;19.48;10.63;;;;;;;;;;5031702;28;20033;-59
2024/04/07 08:59:41;;;;;;;15.88;10.48;;;;;;;;;;5030655;28;20048;-59
2024/04/07 09:02:07;;;;;;;13.80;9.55;;;;;;;;;;5031038;28;20030;-61
2024/04/07 09:04:35;;;;;;;16.58;10.23;;;;;;;;;;5030851;28;20064;-54
2024/04/07 09:07:01;;;;;;;18.13;9.73;;;;;;;;;;5031146;28;20029;-55
2024/04/07 09:09:29;;;;;;;13.27;9.38;;;;;;;;;;5032102;28;20834;-57
2024/04/07 09:11:55;;;;;;;16.60;10.20;;;;;;;;;;5047457;28;20040;-60
2024/04/07 09:14:21;;;;;;;15.45;9.25;;;;;;;;;;5032161;28;20078;-56
2024/04/07 09:16:46;;;;;;;13.38;9.77;;;;;;;;;;5042464;28;20045;-59
2024/04/07 09:19:12;;;;;;;12.23;9.18;;;;;;;;;;5031698;28;20091;-60
2024/04/07 09:21:43;;;;;;;15.35;9.77;;;;;;;;;;5032258;28;20436;-56
2024/04/07 09:24:09;;;;;;;12.10;9.23;;;;;;;;;;5046993;28;20041;-54
2024/04/07 09:26:35;;;;;;;21.55;9.75;;;;;;;;;;5028498;28;20045;-57
2024/04/07 09:29:00;;;;;;;17.02;9.88;;;;;;;;;;5028093;28;20612;-56
2024/04/07 09:31:26;;;;;;;18.58;10.43;;;;;;;;;;5028613;28;20048;-58
2024/04/07 09:33:52;;;;;;;13.80;10.60;;;;;;;;;;5017138;28;20032;-57
2024/04/07 09:36:17;;;;;;;19.58;11.93;;;;;;;;;;5011458;28;20897;-57
2024/04/07 09:38:43;;;;;;;20.70;12.32;;;;;;;;;;5012027;28;20034;-54
2024/04/07 09:41:10;;;;;;;11.55;9.23;;;;;;;;;;5024366;28;20129;-57
2024/04/07 09:43:38;;;;;;;17.50;10.38;;;;;;;;;;5023591;28;20034;-55
2024/04/07 09:46:05;;;;;;;28.43;14.07;;;;;;;;;;5008846;28;20588;-57
2024/04/07 09:48:32;;;;;;;14.43;9.48;;;;;;;;;;5023376;28;20045;-54
2024/04/07 09:51:11;;;;;;;12.52;9.30;;;;;;;;;;5008872;28;20449;-61
2024/04/07 09:53:39;;;;;;;15.27;9.02;;;;;;;;;;5008813;28;20038;-54
2024/04/07 09:56:05;;;;;;;;;;;;;;;;;;5031335;28;20037;-55
2024/04/07 09:58:31;;;;;;;13.82;9.40;;;;;;;;;;5028129;28;19916;-54
2024/04/07 10:00:58;;;;;;;16.02;8.55;;;;;;;;;;5028492;28;20040;-56
2024/04/07 10:03:24;;;;;;;12.07;8.68;;;;;;;;;;5026618;28;20034;-53
2024/04/07 10:05:50;;;;;;;12.27;9.10;;;;;;;;;;5043474;28;20526;-58
2024/04/07 10:08:17;;;;;;;15.88;8.57;;;;;;;;;;5021322;28;20095;-55
2024/04/07 10:11:04;;;;;;;13.02;8.95;;;;;;;;;;5012821;28;20083;-54
2024/04/07 10:13:32;;;;;;;12.85;8.30;;;;;;;;;;5019017;28;20045;-56
2024/04/07 10:15:58;;;;;;;16.40;10.88;;;;;;;;;;5008013;28;20583;-57
2024/04/07 10:18:27;;;;;;;15.80;8.77;;;;;;;;;;5006528;28;20036;-55
2024/04/07 10:20:53;;;;;;;11.90;7.78;;;;;;;;;;4990157;28;20081;-59
2024/04/07 10:23:20;;;;;;;10.07;8.27;;;;;;;;;;5024470;28;20430;-54
2024/04/07 10:25:48;;;;;;;12.82;7.80;;;;;;;;;;5027614;28;20048;-56
2024/04/07 10:28:14;;;;;;;9.60;7.43;;;;;;;;;;5042719;28;20029;-58
2024/04/07 10:30:59;;;;;;;14.20;7.82;;;;;;;;;;5026168;28;20044;-54
2024/04/07 10:33:29;;;;;;;11.43;7.05;;;;;;;;;;5027279;28;20025;-58
2024/04/07 10:35:58;;;;;;;11.23;6.18;;;;;;;;;;5022807;28;20525;-54
2024/04/07 10:38:24;;;;;;;14.32;8.15;;;;;;;;;;5022253;28;20029;-57
2024/04/07 10:40:56;;;;;;;17.60;8.10;;;;;;;;;;5023096;28;20119;-59
2024/04/07 10:43:22;;;;;;;8.65;6.55;;;;;;;;;;5008083;28;20038;-58
2024/04/07 10:45:48;;;;;;;7.78;6.28;;;;;;;;;;5019098;28;20038;-54
2024/04/07 10:48:14;;;;;;;13.80;6.85;;;;;;;;;;5022628;28;20068;-55
2024/04/07 10:50:39;;;;;;;11.80;6.82;;;;;;;;;;5007141;28;20073;-55
2024/04/07 10:53:08;;;;;;;7.90;5.82;;;;;;;;;;5007326;28;20038;-60
2024/04/07 10:55:34;;;;;;;6.28;5.68;;;;;;;;;;5017031;28;20033;-52
2024/04/07 10:58:00;;;;;;;13.70;6.72;;;;;;;;;;5027263;28;20041;-58
2024/04/07 11:00:26;;;;;;;9.63;6.20;;;;;;;;;;5027193;28;20037;-54
2024/04/07 11:02:55;;;;;;;7.03;5.15;;;;;;;;;;5027248;28;20029;-58
2024/04/07 11:05:21;;;;;;;6.45;5.20;;;;;;;;;;5021941;28;20061;-56
2024/04/07 11:07:47;;;;;;;9.20;6.00;;;;;;;;;;5006905;28;20037;-53
2024/04/07 11:10:15;;;;;;;17.65;8.75;;;;;;;;;;5006808;28;20875;-56
2024/04/07 11:12:43;;;;;;;8.43;5.68;;;;;;;;;;5018205;28;20167;-60
2024/04/07 11:15:16;;;;;;;5.80;5.20;;;;;;;;;;5041424;28;20045;-55
2024/04/07 11:17:42;;;;;;;10.73;6.80;;;;;;;;;;5041972;28;20029;-57
2024/04/07 11:20:10;;;;;;;7.68;5.60;;;;;;;;;;5026756;28;20107;-53
2024/04/07 11:22:36;;;;;;;11.32;5.60;;;;;;;;;;5025234;28;20037;-57
2024/04/07 11:25:02;;;;;;;8.50;5.50;;;;;;;;;;5041700;28;20041;-55
2024/04/07 11:27:29;;;;;;;17.83;11.48;;;;;;;;;;5008575;28;20039;-55
2024/04/07 11:29:55;;;;;;;7.72;5.50;;;;;;;;;;5024374;28;20421;-54
2024/04/07 11:32:25;;;;;;;13.02;5.63;;;;;;;;;;5019974;28;20084;-58
2024/04/07 11:34:52;;;;;;;23.40;11.93;;;;;;;;;;5019856;28;20394;-53
2024/04/07 11:37:18;;;;;;;26.88;10.73;;;;;;;;;;5015747;28;20084;-55
2024/04/07 11:39:50;;;;;;;7.40;5.10;;;;;;;;;;4988934;28;20041;-57
2024/04/07 11:42:15;;;;;;;7.72;5.13;;;;;;;;;;5005322;28;20029;-52
2024/04/07 11:44:41;;;;;;;13.30;5.57;;;;;;;;;;5006484;28;20060;-54
2024/04/07 11:47:07;;;;;;;8.13;5.18;;;;;;;;;;5015630;28;20132;-57
2024/04/07 11:49:33;;;;;;;8.18;5.35;;;;;;;;;;5041040;28;20095;-58
2024/04/07 11:51:59;;;;;;;8.57;5.47;;;;;;;;;;5024116;28;20037;-57
2024/04/07 11:54:25;;;;;;;9.00;5.30;;;;;;;;;;5013597;28;20038;-54
2024/04/07 11:56:51;;;;;;;6.68;4.68;;;;;;;;;;5030943;28;20042;-53
2024/04/07 11:59:17;;;;;;;8.88;5.28;;;;;;;;;;5016027;28;20420;-55
2024/04/07 12:01:42;;;;;;;12.77;5.32;;;;;;;;;;5026045;28;20033;-56
2024/04/07 12:04:08;;;;;;;12.65;5.50;;;;;;;;;;5025808;28;20029;-55
2024/04/07 12:06:34;;;;;;;9.55;5.38;;;;;;;;;;5025759;28;20514;-55
2024/04/07 12:08:59;;;;;;;7.35;5.30;;;;;;;;;;5025309;28;20103;-56
2024/04/07 12:11:25;;;;;;;11.88;5.45;;;;;;;;;;5024339;28;20041;-54
2024/04/07 12:13:51;;;;;;;7.93;5.18;;;;;;;;;;5040689;28;20088;-58
2024/04/07 12:16:18;;;;;;;7.85;5.00;;;;;;;;;;5024676;28;20034;-56
2024/04/07 12:18:43;;;;;;;6.70;4.57;;;;;;;;;;5009581;28;20103;-58
2024/04/07 12:21:09;;;;;;;13.70;6.15;;;;;;;;;;5005872;28;20041;-56
2024/04/07 12:23:35;;;;;;;10.85;5.43;;;;;;;;;;5004783;28;20061;-57
2024/04/07 12:26:01;;;;;;;8.05;4.90;;;;;;;;;;5005584;28;20083;-52
2024/04/07 12:28:27;;;;;;;10.52;5.22;;;;;;;;;;5026284;28;20088;-56
2024/04/07 12:30:53;;;;;;;16.25;4.63;;;;;;;;;;5005667;28;20068;-56
2024/04/07 12:33:18;;;;;;;9.88;3.83;;;;;;;;;;5015718;28;20061;-56
2024/04/07 12:35:44;;;;;;;9.93;4.03;;;;;;;;;;5040197;28;20030;-56
2024/04/07 12:38:10;;;;;;;9.63;4.93;;;;;;;;;;5022977;28;20025;-54
2024/04/07 12:40:36;;;;;;;8.93;4.88;;;;;;;;;;5006366;28;20042;-55
2024/04/07 12:43:02;;;;;;;11.10;4.72;;;;;;;;;;5005815;28;20088;-55
2024/04/07 12:45:28;;;;;;;8.30;4.20;;;;;;;;;;5005924;28;20038;-53
2024/04/07 12:47:54;;;;;;;9.07;4.57;;;;;;;;;;5005910;28;20026;-57
2024/04/07 12:50:19;;;;;;;6.88;4.32;;;;;;;;;;5016171;28;20402;-56
2024/04/07 12:52:47;;;;;;;7.75;3.92;;;;;;;;;;5025495;28;20406;-55
2024/04/07 12:55:13;;;;;;;6.75;4.15;;;;;;;;;;5025236;28;20048;-56
2024/04/07 12:57:41;;;;;;;7.75;4.22;;;;;;;;;;5025792;28;20823;-53
2024/04/07 13:00:14;;;;;;;6.95;4.05;;;;;;;;;;5023848;28;20030;-57
2024/04/07 13:02:43;;;;;;;6.97;4.15;;;;;;;;;;5042959;28;20041;-55
2024/04/07 13:05:09;;;;;;;7.38;4.38;;;;;;;;;;5044325;28;20045;-54
2024/04/07 13:07:35;;;;;;;5.68;3.60;;;;;;;;;;5043918;28;20048;-56
2024/04/07 13:10:02;;;;;;;6.25;3.72;;;;;;;;;;5043618;28;20092;-57
2024/04/07 13:12:30;;;;;;;7.03;4.32;;;;;;;;;;5027899;28;20049;-56
2024/04/07 13:14:59;;;;;;;4.95;3.45;;;;;;;;;;5028626;28;20398;-54
2024/04/07 13:17:24;;;;;;;7.40;3.83;;;;;;;;;;5027032;28;20626;-53
2024/04/07 13:19:50;;;;;;;5.80;3.47;;;;;;;;;;5028945;28;20044;-58
2024/04/07 13:22:19;;;;;;;5.22;3.38;;;;;;;;;;5043290;28;20077;-53
2024/04/07 13:24:44;;;;;;;7.57;3.58;;;;;;;;;;5027200;28;20834;-57
2024/04/07 13:27:10;;;;;;;14.32;5.15;;;;;;;;;;5028291;28;20072;-54
2024/04/07 13:29:36;;;;;;;7.57;4.53;;;;;;;;;;5028465;28;20076;-53
2024/04/07 13:32:02;;;;;;;8.18;4.50;;;;;;;;;;5012457;28;20033;-55
2024/04/07 13:34:27;;;;;;;5.88;3.42;;;;;;;;;;4992726;28;20048;-58
2024/04/07 13:36:58;;;;;;;7.95;3.95;;;;;;;;;;5010871;28;20038;-57
2024/04/07 13:39:26;;;;;;;6.95;3.72;;;;;;;;;;4994672;28;20037;-55
2024/04/07 13:41:53;;;;;;;13.70;4.78;;;;;;;;;;5009747;28;20413;-55
2024/04/07 13:44:19;;;;;;;8.52;3.40;;;;;;;;;;5043512;28;20044;-58
2024/04/07 13:46:48;;;;;;;6.03;3.38;;;;;;;;;;5028224;28;20025;-53
2024/04/07 13:49:13;;;;;;;5.57;3.30;;;;;;;;;;5026962;28;20033;-60
2024/04/07 13:51:40;;;;;;;12.13;3.95;;;;;;;;;;5026697;28;20052;-60
2024/04/07 13:54:05;;;;;;;5.32;2.83;;;;;;;;;;5027371;28;20047;-57
2024/04/07 13:56:34;;;;;;;6.72;3.33;;;;;;;;;;5035947;28;20725;-58
2024/04/07 13:59:00;;;;;;;5.82;3.10;;;;;;;;;;5028735;28;20068;-55
2024/04/07 14:01:26;;;;;;;7.57;2.95;;;;;;;;;;5026319;28;20037;-59
2024/04/07 14:03:54;;;;;;;5.63;2.97;;;;;;;;;;5026546;28;20038;-59
2024/04/07 14:06:19;;;;;;;5.43;3.22;;;;;;;;;;5043284;28;20038;-57
2024/04/07 14:08:45;;;;;;;8.15;3.38;;;;;;;;;;5025442;28;20415;-58
2024/04/07 14:11:11;;;;;;;6.50;3.20;;;;;;;;;;5026353;28;20515;-57
2024/04/07 14:13:37;;;;;;;4.30;3.47;;;;;;;;;;5027050;28;20033;-59
2024/04/07 14:16:03;;;;;;;9.18;3.42;;;;;;;;;;5026418;28;20043;-57
2024/04/07 14:18:28;;;;;;;5.65;3.47;;;;;;;;;;5027155;28;20500;-59
2024/04/07 14:20:54;;;;;;;8.57;3.70;;;;;;;;;;5042872;28;20589;-54
2024/04/07 14:23:20;;;;;;;7.45;3.58;;;;;;;;;;5026409;28;20029;-60
2024/04/07 14:25:49;;;;;;;10.65;4.10;;;;;;;;;;5028206;28;20033;-55